Time;durP1;ratioP1;P1;durP2;ratioP2;P2;SDS_P1;SDS_P2;PMS_P1;PMS_P2;Temp;Humidity;BMP_temperature;BMP_pressure;BME280_temperature;BME280_humidity;BME280_pressure;Samples;Min_cycle;Max_cycle;Signal;HPM_P1;HPM_P2
2023/09/21 00:00:33;;;;;;;6.10;6.00;;;;;;;-141.02;100.00;38887.41;5133269;27;20197;-60
2023/09/21 00:03:01;;;;;;;6.05;5.95;;;;;;;-141.02;100.00;38812.63;5133157;27;20231;-60
2023/09/21 00:05:31;;;;;;;5.88;5.78;;;;;;;-141.02;100.00;38743.59;5133175;27;20193;-60
2023/09/21 00:08:00;;;;;;;6.70;6.50;;;;;;;-141.02;100.00;38839.47;5133185;27;20558;-60
2023/09/21 00:10:32;;;;;;;6.40;6.30;;;;;;;-141.02;100.00;38803.03;5133188;27;20315;-60
2023/09/21 00:12:59;;;;;;;7.10;6.90;;;;;;;-141.02;100.00;38714.84;5133117;27;20189;-60
2023/09/21 00:15:29;;;;;;;7.63;7.43;;;;;;;-141.02;100.00;38799.22;5133193;27;20389;-60
2023/09/21 00:17:57;;;;;;;7.70;7.50;;;;;;;-141.02;100.00;38814.56;5133053;27;20228;-60
2023/09/21 00:20:35;;;;;;;7.45;7.25;;;;;;;-141.02;100.00;38875.91;5133107;27;20633;-60
2023/09/21 00:23:06;;;;;;;7.60;7.40;;;;;;;-141.02;100.00;38897.00;5132964;27;20222;-60
2023/09/21 00:25:33;;;;;;;7.78;7.57;;;;;;;-141.02;100.00;38883.56;5133206;27;20191;-61
2023/09/21 00:28:07;;;;;;;8.15;7.95;;;;;;;-141.02;100.00;39006.31;5133227;27;20196;-59
2023/09/21 00:30:35;;;;;;;7.80;7.60;;;;;;;-141.02;100.00;39040.81;5132886;27;20227;-61
2023/09/21 00:33:02;;;;;;;8.40;8.20;;;;;;;-141.02;100.00;39029.31;5132907;27;20727;-60
2023/09/21 00:35:29;;;;;;;8.00;7.80;;;;;;;-141.02;100.00;39102.19;5133138;27;20275;-60
2023/09/21 00:37:57;;;;;;;7.80;7.60;;;;;;;-141.02;100.00;39159.72;5133042;27;20574;-60
2023/09/21 00:40:25;;;;;;;7.60;7.40;;;;;;;-141.02;100.00;39309.28;5133054;27;20603;-59
2023/09/21 00:42:52;;;;;;;7.00;6.80;;;;;;;-141.02;100.00;39382.16;5132674;27;20725;-59
2023/09/21 00:45:21;;;;;;;6.60;6.40;;;;;;;-141.02;100.00;39485.72;5132812;27;20203;-60
2023/09/21 00:47:50;;;;;;;6.78;6.57;;;;;;;-141.02;100.00;39531.75;5132687;27;20203;-59
2023/09/21 00:50:20;;;;;;;6.90;6.70;;;;;;;-141.02;100.00;39518.31;5133007;27;20283;-61
2023/09/21 00:52:51;;;;;;;7.30;7.10;;;;;;;-141.02;100.00;39589.28;5132626;27;20577;-60
2023/09/21 00:55:23;;;;;;;8.20;8.00;;;;;;;-141.02;100.00;39493.41;5132947;27;20188;-59
2023/09/21 00:57:55;;;;;;;8.32;8.13;;;;;;;-141.02;100.00;39409.00;5132651;27;20730;-59
2023/09/21 01:00:25;;;;;;;8.65;8.45;;;;;;;-141.02;100.00;39324.63;5133254;27;20252;-60
2023/09/21 01:02:54;;;;;;;8.90;8.70;;;;;;;-141.02;100.00;39270.94;5132864;27;20216;-60
2023/09/21 01:05:21;;;;;;;8.73;8.52;;;;;;;-141.02;100.00;39217.25;5135626;27;20279;-60
2023/09/21 01:07:50;;;;;;;8.50;8.30;;;;;;;-141.02;100.00;39274.78;5136559;27;20650;-60
2023/09/21 01:10:19;;;;;;;8.15;7.95;;;;;;;-141.02;100.00;39293.94;5136633;27;20280;-60
2023/09/21 01:12:49;;;;;;;8.27;8.07;;;;;;;-141.02;100.00;39351.47;5136780;27;20204;-60
2023/09/21 01:15:17;;;;;;;7.30;7.10;;;;;;;-141.02;100.00;39334.22;5136963;27;20200;-60
2023/09/21 01:17:46;;;;;;;8.38;8.18;;;;;;;-141.02;100.00;39224.91;5136657;27;20196;-60
2023/09/21 01:20:16;;;;;;;8.90;8.70;;;;;;;-141.02;100.00;39173.13;5136666;27;20200;-60
2023/09/21 01:22:46;;;;;;;9.10;8.90;;;;;;;-141.02;100.00;39098.34;5136223;27;20673;-60
2023/09/21 01:25:15;;;;;;;9.75;9.45;;;;;;;-141.02;100.00;39148.19;5136574;27;20241;-60
2023/09/21 01:27:42;;;;;;;10.00;9.70;;;;;;;-141.02;100.00;39247.91;5136114;27;20192;-59
2023/09/21 01:30:12;;;;;;;9.80;9.50;;;;;;;-141.02;100.00;39351.47;5136196;27;20680;-59
2023/09/21 01:32:39;;;;;;;9.80;9.50;;;;;;;-141.02;100.00;39328.47;5135994;27;20200;-59
2023/09/21 01:35:07;;;;;;;9.90;9.60;;;;;;;-141.02;100.00;39424.34;5136061;27;20655;-60
2023/09/21 01:37:35;;;;;;;9.50;9.20;;;;;;;-141.02;100.00;39297.78;5136258;27;20197;-59
2023/09/21 01:40:09;;;;;;;8.90;8.70;;;;;;;-141.02;100.00;39341.88;5136322;27;20219;-59
2023/09/21 01:42:38;;;;;;;8.70;8.50;;;;;;;-141.02;100.00;39330.38;5135935;27;20560;-60
2023/09/21 01:45:11;;;;;;;8.85;8.65;;;;;;;-141.02;100.00;39144.38;5135811;27;20717;-59
2023/09/21 01:47:38;;;;;;;9.63;9.32;;;;;;;-141.02;100.00;39221.06;5136108;27;20195;-59
2023/09/21 01:50:10;;;;;;;8.80;8.60;;;;;;;-141.02;100.00;39209.56;5136307;27;20230;-60
2023/09/21 01:52:37;;;;;;;8.80;8.60;;;;;;;-141.02;100.00;39054.25;5136066;27;20195;-59
2023/09/21 01:55:10;;;;;;;9.10;8.90;;;;;;;-141.02;100.00;38902.75;5135603;27;20192;-59
2023/09/21 01:57:39;;;;;;;9.80;9.50;;;;;;;-141.02;100.00;38826.06;5135699;27;20643;-59
2023/09/21 02:00:12;;;;;;;10.00;9.70;;;;;;;-141.02;100.00;38776.19;5135556;27;20196;-59
2023/09/21 02:02:40;;;;;;;10.40;10.10;;;;;;;-141.02;100.00;38898.91;5135527;27;20200;-59
2023/09/21 02:05:12;;;;;;;10.40;10.10;;;;;;;-141.02;100.00;38910.44;5135704;27;20231;-59
2023/09/21 02:07:40;;;;;;;9.95;9.65;;;;;;;-141.02;100.00;38877.81;5135484;27;20199;-59
2023/09/21 02:10:11;;;;;;;9.80;9.50;;;;;;;-141.02;100.00;39013.97;5135278;27;20737;-59
2023/09/21 02:12:40;;;;;;;9.30;9.00;;;;;;;-141.02;100.00;39086.84;5135699;27;20192;-60
2023/09/21 02:15:12;;;;;;;8.77;8.57;;;;;;;-141.02;100.00;39175.06;5134663;27;20196;-59
2023/09/21 02:17:39;;;;;;;8.88;8.68;;;;;;;-141.02;100.00;39232.59;5135187;27;20185;-59
2023/09/21 02:20:14;;;;;;;8.93;8.73;;;;;;;-141.02;100.00;39104.09;5135238;27;20196;-59
2023/09/21 02:22:43;;;;;;;8.68;8.48;;;;;;;-141.02;100.00;39006.31;5135432;27;20267;-59
2023/09/21 02:25:11;;;;;;;9.40;9.10;;;;;;;-141.02;100.00;38914.25;5135026;27;20224;-60
2023/09/21 02:27:41;;;;;;;8.75;8.55;;;;;;;-141.02;100.00;39121.34;5135574;27;20223;-59
2023/09/21 02:30:10;;;;;;;8.80;8.60;;;;;;;-141.02;100.00;39021.63;5135594;27;20192;-59
2023/09/21 02:32:37;;;;;;;8.75;8.55;;;;;;;-141.02;100.00;39199.97;5134927;27;20199;-59
2023/09/21 02:35:07;;;;;;;8.40;8.20;;;;;;;-141.02;100.00;39483.81;5135223;27;20203;-59
2023/09/21 02:37:35;;;;;;;8.40;8.20;;;;;;;-141.02;100.00;39535.59;5134810;27;20228;-59
2023/09/21 02:40:04;;;;;;;8.00;7.80;;;;;;;-141.02;100.00;39516.41;5135108;27;20204;-59
2023/09/21 02:42:31;;;;;;;8.00;7.80;;;;;;;-141.02;100.00;39489.56;5135098;27;20626;-59
2023/09/21 02:45:00;;;;;;;7.70;7.50;;;;;;;-141.02;100.00;39735.06;5134945;27;20232;-59
2023/09/21 02:47:30;;;;;;;7.20;7.00;;;;;;;-141.02;100.00;39900.00;5135035;27;20224;-59
2023/09/21 02:49:57;;;;;;;7.07;6.88;;;;;;;-141.02;100.00;40180.06;5135402;27;20249;-59
2023/09/21 02:52:24;;;;;;;6.65;6.45;;;;;;;-141.02;100.00;40648.13;5134924;27;20306;-59
2023/09/21 02:54:53;;;;;;;6.00;5.90;;;;;;;-141.02;100.00;40966.63;5135056;27;20196;-59
2023/09/21 02:57:21;;;;;;;5.70;5.60;;;;;;;-141.02;100.00;40826.56;5134519;27;20740;-59
2023/09/21 02:59:49;;;;;;;5.60;5.50;;;;;;;-141.02;100.00;40392.97;5134381;27;20224;-59
2023/09/21 03:02:19;;;;;;;5.70;5.60;;;;;;;-141.02;100.00;39997.81;5134646;27;20200;-59
2023/09/21 03:04:46;;;;;;;5.80;5.70;;;;;;;-141.02;100.00;39913.44;5134246;27;20280;-59
2023/09/21 03:07:14;;;;;;;5.40;5.30;;;;;;;-141.02;100.00;39765.75;5134205;27;20197;-59
2023/09/21 03:09:40;;;;;;;5.13;5.03;;;;;;;-141.02;100.00;39600.78;5134008;27;20223;-59
2023/09/21 03:12:08;;;;;;;5.60;5.50;;;;;;;-141.02;100.00;39593.13;5134138;27;20283;-60
2023/09/21 03:14:35;;;;;;;5.50;5.40;;;;;;;-141.02;100.00;39504.91;5134383;27;20237;-59
2023/09/21 03:17:02;;;;;;;5.75;5.65;;;;;;;-141.02;100.00;39485.72;5134106;27;20651;-59
2023/09/21 03:19:31;;;;;;;5.72;5.63;;;;;;;-141.02;100.00;39608.47;5134768;27;20198;-59
2023/09/21 03:21:57;;;;;;;6.47;6.28;;;;;;;-141.02;100.00;39857.81;5134028;27;20193;-59
2023/09/21 03:24:25;;;;;;;6.15;6.05;;;;;;;-141.02;100.00;39892.34;5133814;27;20706;-59
2023/09/21 03:26:52;;;;;;;6.10;6.00;;;;;;;-141.02;100.00;40122.50;5133614;27;20238;-60
2023/09/21 03:29:19;;;;;;;5.68;5.57;;;;;;;-141.02;100.00;40137.84;5134122;27;20196;-59
2023/09/21 03:31:47;;;;;;;5.50;5.40;;;;;;;-141.02;100.00;40183.88;5134041;27;20192;-59
2023/09/21 03:34:14;;;;;;;5.22;5.13;;;;;;;-141.02;100.00;39919.19;5134567;27;20200;-59
2023/09/21 03:36:42;;;;;;;5.10;5.00;;;;;;;-141.02;100.00;40279.81;5133975;27;20207;-60
2023/09/21 03:39:10;;;;;;;5.00;4.90;;;;;;;-141.02;100.00;40379.56;5133979;27;20227;-59
2023/09/21 03:41:38;;;;;;;5.20;5.10;;;;;;;-141.02;100.00;40137.84;5133851;27;20192;-59
2023/09/21 03:44:06;;;;;;;5.07;4.97;;;;;;;-141.02;100.00;39997.81;5133766;27;20239;-60
2023/09/21 03:46:34;;;;;;;5.13;5.03;;;;;;;-141.02;100.00;39988.22;5133816;27;20245;-59
2023/09/21 03:49:00;;;;;;;4.97;4.88;;;;;;;-141.02;100.00;39627.66;5133796;27;20224;-59
2023/09/21 03:51:29;;;;;;;5.50;5.40;;;;;;;-141.02;100.00;39596.97;5133728;27;20196;-59
2023/09/21 03:53:59;;;;;;;5.43;5.32;;;;;;;-141.02;100.00;39600.78;5133358;27;20197;-59
2023/09/21 03:56:26;;;;;;;5.95;5.85;;;;;;;-141.02;100.00;39723.53;5133391;27;20617;-59
2023/09/21 03:58:55;;;;;;;5.65;5.55;;;;;;;-141.02;100.00;39807.94;5133318;27;20203;-59
2023/09/21 04:01:22;;;;;;;5.90;5.80;;;;;;;-141.02;100.00;39896.16;5133241;27;20616;-59
2023/09/21 04:03:53;;;;;;;5.88;5.78;;;;;;;-141.02;100.00;39924.94;5133192;27;20690;-59
2023/09/21 04:06:20;;;;;;;5.88;5.78;;;;;;;-141.02;100.00;39846.28;5133210;27;20275;-59
2023/09/21 04:08:47;;;;;;;5.80;5.70;;;;;;;-141.02;100.00;39984.41;5133492;27;20622;-59
2023/09/21 04:11:15;;;;;;;6.38;6.28;;;;;;;-141.02;100.00;40191.56;5133137;27;20267;-59
2023/09/21 04:13:42;;;;;;;6.32;6.22;;;;;;;-141.02;100.00;40517.69;5133069;27;20196;-59
2023/09/21 04:16:09;;;;;;;6.57;6.38;;;;;;;-141.02;100.00;40840.00;5133370;27;20215;-59
2023/09/21 04:18:36;;;;;;;6.13;6.03;;;;;;;-141.02;100.00;41062.56;5133004;27;20283;-59
2023/09/21 04:21:08;;;;;;;6.78;6.57;;;;;;;-141.02;100.00;41216.06;5132980;27;20648;-59
2023/09/21 04:23:35;;;;;;;6.07;5.97;;;;;;;-141.02;100.00;41386.84;5132960;27;20238;-59
2023/09/21 04:26:02;;;;;;;6.10;6.00;;;;;;;-141.02;100.00;41392.59;5132969;27;20200;-62
2023/09/21 04:28:30;;;;;;;6.20;6.10;;;;;;;-141.02;100.00;41237.16;5132891;27;20228;-72
2023/09/21 04:31:01;;;;;;;6.22;6.13;;;;;;;-141.02;100.00;41461.69;5132984;27;20678;-60
2023/09/21 04:33:28;;;;;;;5.20;5.10;;;;;;;-141.02;100.00;41070.22;5133196;27;20188;-70
2023/09/21 04:35:55;;;;;;;6.40;6.28;;;;;;;-141.02;100.00;41077.91;5133137;27;20202;-59
2023/09/21 04:38:22;;;;;;;6.20;6.10;;;;;;;-141.02;100.00;41250.59;5133399;27;20287;-59
2023/09/21 04:40:51;;;;;;;7.00;6.80;;;;;;;-141.02;100.00;41398.34;5136878;27;20597;-59
2023/09/21 04:43:18;;;;;;;7.00;6.80;;;;;;;-141.02;100.00;41440.56;5137469;27;20192;-59
2023/09/21 04:45:50;;;;;;;6.82;6.63;;;;;;;-141.02;100.00;41778.31;5137280;27;20227;-59
2023/09/21 04:48:17;;;;;;;6.70;6.50;;;;;;;-141.02;100.00;42060.44;5137074;27;20271;-59
2023/09/21 04:50:48;;;;;;;6.70;6.50;;;;;;;-141.02;100.00;41918.41;5136907;27;20203;-59
2023/09/21 04:53:15;;;;;;;6.40;6.30;;;;;;;-141.02;100.00;41960.66;5137622;27;20192;-59
2023/09/21 04:55:42;;;;;;;6.30;6.20;;;;;;;-141.02;100.00;42200.56;5137102;27;20200;-59
2023/09/21 04:58:09;;;;;;;6.47;6.30;;;;;;;-141.02;100.00;42288.84;5136805;27;20279;-59
2023/09/21 05:00:36;;;;;;;6.15;6.05;;;;;;;-141.02;100.00;42242.78;5136809;27;20188;-63
2023/09/21 05:03:06;;;;;;;6.60;6.40;;;;;;;-141.02;100.00;42260.06;5136634;27;20629;-59
2023/09/21 05:05:33;;;;;;;6.30;6.20;;;;;;;-141.02;100.00;42177.53;5136608;27;20276;-59
2023/09/21 05:08:03;;;;;;;6.57;6.38;;;;;;;-141.02;100.00;42225.50;5137163;27;20192;-59
2023/09/21 05:10:30;;;;;;;6.90;6.70;;;;;;;-141.02;100.00;42574.88;5136841;27;20232;-59
2023/09/21 05:12:57;;;;;;;6.93;6.72;;;;;;;-141.02;100.00;42559.50;5136808;27;20196;-59
2023/09/21 05:15:24;;;;;;;7.30;7.10;;;;;;;-141.02;100.00;42271.56;5136431;27;20654;-59
2023/09/21 05:17:51;;;;;;;8.70;8.50;;;;;;;-141.02;100.00;42137.22;5136727;27;20287;-62
2023/09/21 05:20:20;;;;;;;8.70;8.50;;;;;;;-141.02;100.00;42490.41;5136379;27;20242;-72
2023/09/21 05:22:47;;;;;;;8.80;8.60;;;;;;;-141.02;100.00;42144.91;5136620;27;20572;-59
2023/09/21 05:25:14;;;;;;;9.48;9.18;;;;;;;-141.02;100.00;42119.94;5136511;27;20228;-59
2023/09/21 05:27:44;;;;;;;10.18;9.88;;;;;;;-141.02;100.00;41868.53;5136172;27;20735;-60
2023/09/21 05:30:13;;;;;;;10.60;10.30;;;;;;;-141.02;100.00;42068.13;5136209;27;20193;-59
2023/09/21 05:32:41;;;;;;;11.60;11.30;;;;;;;-141.02;100.00;41822.47;5136448;27;20192;-59
2023/09/21 05:35:10;;;;;;;12.07;11.68;;;;;;;-141.02;100.00;41592.16;5136613;27;20275;-59
2023/09/21 05:37:39;;;;;;;13.15;12.75;;;;;;;-141.02;100.00;41594.09;5136323;27;20200;-59
2023/09/21 05:40:11;;;;;;;15.13;14.63;;;;;;;-141.02;100.00;41446.31;5136020;27;20197;-59
2023/09/21 05:42:39;;;;;;;14.90;14.40;;;;;;;-141.02;100.00;41358.06;5135957;27;20189;-59
2023/09/21 05:45:07;;;;;;;14.50;14.10;;;;;;;-141.02;100.00;41496.22;5135804;27;20224;-59
2023/09/21 05:47:34;;;;;;;15.15;14.65;;;;;;;-141.02;100.00;41058.72;5135858;27;20283;-59
2023/09/21 05:50:00;;;;;;;15.10;14.60;;;;;;;-141.02;100.00;41534.59;5135956;27;20275;-72
2023/09/21 05:52:30;;;;;;;14.00;13.60;;;;;;;-141.02;100.00;41738.03;5136403;27;20228;-59
2023/09/21 05:54:59;;;;;;;13.60;13.20;;;;;;;-141.02;100.00;41839.72;5135615;27;20225;-60
2023/09/21 05:57:27;;;;;;;13.90;13.50;;;;;;;-141.02;100.00;41670.84;5135677;27;20195;-60
2023/09/21 05:59:54;;;;;;;13.50;13.10;;;;;;;-141.02;100.00;41457.84;5135550;27;20192;-59
2023/09/21 06:02:22;;;;;;;14.00;13.60;;;;;;;-141.02;100.00;41427.13;5135893;27;20200;-60
2023/09/21 06:04:49;;;;;;;13.80;13.40;;;;;;;-141.02;100.00;41265.94;5135947;27;20314;-60
2023/09/21 06:07:16;;;;;;;13.77;13.38;;;;;;;-141.02;100.00;41265.94;5135732;27;20231;-60
2023/09/21 06:09:44;;;;;;;13.85;13.45;;;;;;;-141.02;100.00;41292.81;5135507;27;20307;-60
2023/09/21 06:12:14;;;;;;;13.63;13.23;;;;;;;-141.02;100.00;41279.38;5135373;27;20253;-60
2023/09/21 06:14:41;;;;;;;12.95;12.55;;;;;;;-141.02;100.00;41162.34;5135364;27;20242;-60
2023/09/21 06:17:12;;;;;;;13.30;12.90;;;;;;;-141.02;100.00;41170.00;5135631;27;20220;-60
2023/09/21 06:19:40;;;;;;;12.90;12.50;;;;;;;-141.02;100.00;41166.16;5135551;27;20187;-59
2023/09/21 06:22:07;;;;;;;12.63;12.23;;;;;;;-141.02;100.00;41070.22;5135174;27;20602;-60
2023/09/21 06:24:34;;;;;;;12.43;12.02;;;;;;;-141.02;100.00;41254.44;5135328;27;20311;-60
2023/09/21 06:27:01;;;;;;;12.27;11.88;;;;;;;-141.02;100.00;41369.56;5135068;27;20658;-60
2023/09/21 06:29:29;;;;;;;11.70;11.40;;;;;;;-141.02;100.00;41411.78;5135021;27;20279;-59
2023/09/21 06:32:00;;;;;;;11.82;11.48;;;;;;;-141.02;100.00;41532.69;5135571;27;20569;-60
2023/09/21 06:34:27;;;;;;;12.20;11.80;;;;;;;-141.02;100.00;41711.16;5134949;27;20249;-60
2023/09/21 06:36:56;;;;;;;11.50;11.20;;;;;;;-141.02;100.00;41833.97;5134864;27;20697;-60
2023/09/21 06:39:23;;;;;;;12.02;11.63;;;;;;;-141.02;100.00;41799.44;5135209;27;20232;-60
2023/09/21 06:41:50;;;;;;;12.68;12.27;;;;;;;-141.02;100.00;41743.78;5134804;27;20731;-60
2023/09/21 06:44:18;;;;;;;12.65;12.25;;;;;;;-141.02;100.00;41661.25;5135043;27;20223;-60
2023/09/21 06:46:47;;;;;;;12.85;12.45;;;;;;;-141.02;100.00;41432.91;5135031;27;20228;-60
2023/09/21 06:49:14;;;;;;;12.40;12.00;;;;;;;-141.02;100.00;41473.19;5134982;27;20280;-60
2023/09/21 06:51:41;;;;;;;12.35;11.95;;;;;;;-141.02;100.00;41542.28;5134896;27;20227;-60
2023/09/21 06:54:08;;;;;;;12.68;12.27;;;;;;;-141.02;100.00;41507.72;5134565;27;20195;-60
2023/09/21 06:56:35;;;;;;;12.18;11.77;;;;;;;-141.02;100.00;41642.06;5134822;27;20200;-71
2023/09/21 06:59:06;;;;;;;11.75;11.35;;;;;;;-141.02;100.00;41381.09;5135022;27;20224;-59
2023/09/21 07:01:34;;;;;;;11.50;11.20;;;;;;;-141.02;100.00;41624.78;5134225;27;20212;-60
2023/09/21 07:04:03;;;;;;;11.40;11.10;;;;;;;-141.02;100.00;41632.47;5134334;27;20551;-61
2023/09/21 07:06:30;;;;;;;12.07;11.68;;;;;;;-141.02;100.00;41667.00;5134267;27;20249;-60
2023/09/21 07:08:59;;;;;;;12.45;12.05;;;;;;;-141.02;100.00;41933.78;5134597;27;20215;-60
2023/09/21 07:11:26;;;;;;;13.77;13.38;;;;;;;-141.02;100.00;41738.03;5134091;27;20228;-60
2023/09/21 07:13:53;;;;;;;13.20;12.80;;;;;;;-141.02;100.00;42240.88;5134511;27;20194;-60
2023/09/21 07:16:21;;;;;;;15.18;14.63;;;;;;;-141.02;100.00;41899.22;5134062;27;20196;-60
2023/09/21 07:18:49;;;;;;;17.08;16.38;;;;;;;-141.02;100.00;41766.81;5134066;27;20196;-71
2023/09/21 07:21:17;;;;;;;16.65;15.95;;;;;;;-141.02;100.00;42075.81;5134311;27;20275;-60
2023/09/21 07:23:44;;;;;;;17.83;17.02;;;;;;;-141.02;95.41;41423.28;5134258;27;20283;-60
2023/09/21 07:26:11;;;;;;;17.70;16.90;;;;;;;-141.02;91.74;41308.16;5134129;27;20316;-60
2023/09/21 07:28:38;;;;;;;17.88;16.98;;;;;;;-141.02;91.79;41429.06;5134168;27;20197;-66
2023/09/21 07:31:05;;;;;;;17.85;16.95;;;;;;;-141.02;90.36;41244.84;5134044;27;20235;-60
2023/09/21 07:33:32;;;;;;;18.60;17.67;;;;;;;-141.02;89.23;41146.97;5133698;27;20202;-60
2023/09/21 07:35:59;;;;;;;18.60;17.70;;;;;;;-141.02;85.81;41097.09;5133745;27;20189;-60
2023/09/21 07:38:27;;;;;;;18.80;17.90;;;;;;;-141.02;88.73;41338.88;5133948;27;20220;-60
2023/09/21 07:40:55;;;;;;;18.70;17.80;;;;;;;-141.02;86.78;41296.66;5133969;27;20231;-60
2023/09/21 07:43:22;;;;;;;19.23;18.33;;;;;;;-141.02;85.41;41254.44;5134170;27;20196;-60
2023/09/21 07:45:50;;;;;;;19.48;18.58;;;;;;;-141.02;85.70;41283.22;5133446;27;20235;-60
2023/09/21 07:48:20;;;;;;;19.35;18.45;;;;;;;-141.02;85.72;41250.59;5133557;27;20239;-61
2023/09/21 07:50:49;;;;;;;18.40;17.60;;;;;;;-141.02;86.04;41271.72;5133783;27;20215;-60
2023/09/21 07:53:17;;;;;;;19.63;18.73;;;;;;;-141.02;85.50;41181.53;5133433;27;20197;-63
2023/09/21 07:55:45;;;;;;;19.35;18.45;;;;;;;-141.02;86.04;41185.34;5133432;27;20699;-61
2023/09/21 07:58:12;;;;;;;18.95;18.05;;;;;;;-141.02;83.46;41066.41;5133589;27;20219;-61
2023/09/21 08:00:39;;;;;;;19.00;18.20;;;;;;;-141.02;84.43;41290.91;5133583;27;20196;-61
2023/09/21 08:03:06;;;;;;;20.80;19.90;;;;;;;-141.02;80.74;41066.41;5133514;27;20246;-60
2023/09/21 08:05:33;;;;;;;21.27;20.27;;;;;;;-141.02;83.38;41200.72;5133227;27;20224;-60
2023/09/21 08:08:00;;;;;;;21.88;20.88;;;;;;;-141.02;83.02;41150.81;5133252;27;20192;-69
2023/09/21 08:10:27;;;;;;;21.45;20.45;;;;;;;-141.02;83.11;41267.88;5133041;27;20264;-60
2023/09/21 08:12:56;;;;;;;21.95;20.95;;;;;;;-141.02;81.33;41216.06;5132852;27;20689;-61
2023/09/21 08:15:23;;;;;;;21.45;20.45;;;;;;;-141.02;81.36;41254.44;5132840;27;20197;-60
2023/09/21 08:17:52;;;;;;;21.38;20.38;;;;;;;-141.02;81.73;41346.53;5133090;27;20232;-60
2023/09/21 08:20:22;;;;;;;21.88;20.88;;;;;;;-141.02;82.70;41388.75;5133376;27;20192;-61
2023/09/21 08:22:49;;;;;;;22.23;21.13;;;;;;;-141.02;81.41;41411.78;5133429;27;20189;-60
2023/09/21 08:25:16;;;;;;;22.33;21.23;;;;;;;-141.02;81.50;41446.31;5133071;27;20262;-60
2023/09/21 08:27:43;;;;;;;21.90;20.80;;;;;;;-141.02;81.73;41559.53;5132966;27;20196;-60
2023/09/21 08:30:12;;;;;;;21.33;20.20;;;;;;;-141.02;80.03;41335.03;5133237;27;20202;-60
2023/09/21 08:32:40;;;;;;;20.98;19.88;;;;;;;-141.02;80.64;41325.44;5133127;27;20192;-60
2023/09/21 08:35:07;;;;;;;22.45;21.25;;;;;;;-141.02;80.58;41241.00;5132947;27;20197;-60
2023/09/21 08:37:36;;;;;;;22.02;20.85;;;;;;;-141.02;80.83;41166.16;5133191;27;20581;-60
2023/09/21 08:40:06;;;;;;;22.10;21.00;;;;;;;-141.02;82.72;41310.09;5133167;27;20277;-60
2023/09/21 08:42:36;;;;;;;21.25;20.15;;;;;;;-141.02;82.45;41108.59;5133098;27;20203;-60
2023/09/21 08:45:07;;;;;;;21.80;20.70;;;;;;;-141.02;82.46;41123.97;5133061;27;20199;-61
2023/09/21 08:47:37;;;;;;;21.17;20.08;;;;;;;-141.02;80.63;41267.88;5132817;27;20271;-60
2023/09/21 08:50:07;;;;;;;21.10;20.00;;;;;;;-141.02;81.55;41258.28;5133020;27;20199;-60
2023/09/21 08:52:34;;;;;;;21.20;20.20;;;;;;;-141.02;80.73;41200.72;5132762;27;20774;-60
2023/09/21 08:55:02;;;;;;;20.60;19.60;;;;;;;-141.02;82.14;41277.47;5132998;27;20196;-60
2023/09/21 08:57:30;;;;;;;20.15;19.15;;;;;;;-141.02;81.84;41231.41;5132714;27;20253;-61
2023/09/21 09:00:05;;;;;;;20.15;19.15;;;;;;;-141.02;80.89;41210.31;5132593;27;20284;-60
2023/09/21 09:02:35;;;;;;;19.00;18.10;;;;;;;-141.02;81.25;41204.53;5132698;27;20191;-60
2023/09/21 09:05:06;;;;;;;20.23;19.23;;;;;;;-141.02;81.79;41181.53;5132529;27;20193;-71
2023/09/21 09:07:39;;;;;;;20.25;19.25;;;;;;;-141.02;81.53;41112.44;5132693;27;20276;-60
2023/09/21 09:10:09;;;;;;;19.70;18.80;;;;;;;-141.02;83.24;41323.50;5132782;27;20232;-61
2023/09/21 09:12:37;;;;;;;19.38;18.48;;;;;;;-141.02;84.25;41430.97;5132847;27;20193;-60
2023/09/21 09:15:05;;;;;;;19.90;18.90;;;;;;;-141.02;80.56;41277.47;5132482;27;20200;-60
2023/09/21 09:17:33;;;;;;;19.98;18.98;;;;;;;-141.02;82.05;41534.59;5133682;27;20295;-60
2023/09/21 09:20:02;;;;;;;20.48;19.40;;;;;;;-141.02;81.56;41427.13;5133614;27;20224;-60
2023/09/21 09:22:31;;;;;;;20.33;19.33;;;;;;;-141.02;78.83;41304.31;5132699;27;20204;-60
2023/09/21 09:25:04;;;;;;;20.65;19.55;;;;;;;-141.02;79.52;41196.88;5133766;27;20219;-61
2023/09/21 09:27:31;;;;;;;20.30;19.30;;;;;;;-141.02;79.81;41139.31;5136487;27;20319;-65
2023/09/21 09:29:59;;;;;;;20.85;19.80;;;;;;;-141.02;80.27;41008.84;5136835;27;20682;-71
2023/09/21 09:32:35;;;;;;;19.63;18.63;;;;;;;-141.02;82.31;41200.72;5136437;27;20279;-61
2023/09/21 09:35:04;;;;;;;20.67;19.63;;;;;;;-141.02;82.98;41212.22;5136166;27;20184;-60
2023/09/21 09:37:34;;;;;;;20.63;19.63;;;;;;;-141.02;82.58;41131.63;5136379;27;20196;-60
2023/09/21 09:40:18;;;;;;;19.88;18.98;;;;;;;-141.02;84.36;41212.22;5136087;27;20232;-60
2023/09/21 09:42:48;;;;;;;18.50;17.60;;;;;;;-141.02;93.18;41603.69;5136221;27;20189;-60
2023/09/21 09:45:18;;;;;;;17.38;16.58;;;;;;;-141.02;92.84;41659.34;5136164;27;20201;-60
2023/09/21 09:47:50;;;;;;;16.98;16.17;;;;;;;-141.02;94.30;41853.16;5136117;27;20201;-60
2023/09/21 09:50:23;;;;;;;17.40;16.60;;;;;;;-141.02;91.35;41728.44;5136242;27;20212;-69
2023/09/21 09:53:00;;;;;;;18.23;17.33;;;;;;;-141.02;89.71;41642.06;5136320;27;20192;-67
2023/09/21 09:55:31;;;;;;;17.60;16.70;;;;;;;-141.02;91.62;41849.34;5135794;27;20666;-60
2023/09/21 09:57:59;;;;;;;18.00;17.10;;;;;;;-141.02;83.15;41490.47;5135716;27;20192;-60
2023/09/21 10:00:27;;;;;;;19.23;18.27;;;;;;;-141.02;83.20;41549.94;5136213;27;20204;-60
2023/09/21 10:02:56;;;;;;;19.00;18.10;;;;;;;-141.02;82.42;41680.44;5135628;27;20283;-61
2023/09/21 10:05:25;;;;;;;20.83;19.83;;;;;;;-141.02;80.68;41596.00;5135821;27;20188;-60
2023/09/21 10:07:59;;;;;;;20.88;19.88;;;;;;;-141.02;80.52;41680.44;5136111;27;20614;-70
2023/09/21 10:10:30;;;;;;;21.38;20.27;;;;;;;-141.02;80.28;41501.97;5135313;27;20677;-61
2023/09/21 10:12:58;;;;;;;21.67;20.58;;;;;;;-141.02;78.66;41762.97;5135394;27;20184;-61
2023/09/21 10:15:26;;;;;;;20.95;19.95;;;;;;;-141.02;78.26;41665.09;5135320;27;20694;-61
2023/09/21 10:17:56;;;;;;;20.73;19.65;;;;;;;-141.02;75.34;41565.31;5135644;27;20219;-60
2023/09/21 10:20:27;;;;;;;20.77;19.77;;;;;;;-141.02;76.48;41878.13;5135844;27;20276;-60
2023/09/21 10:22:58;;;;;;;21.83;20.73;;;;;;;-141.02;75.06;41964.47;5135574;27;20566;-61
2023/09/21 10:25:39;;;;;;;22.85;21.65;;;;;;;-141.02;73.29;42298.44;5135448;27;20192;-61
2023/09/21 10:28:40;;;;;;;22.92;21.63;;;;;;;-141.02;72.22;42221.66;5135481;27;20270;-60
2023/09/21 10:31:23;;;;;;;23.20;21.90;;;;;;;-141.02;73.53;43277.50;5135068;27;20202;-61
2023/09/21 10:34:16;;;;;;;22.80;21.50;;;;;;;-141.02;68.23;43302.47;5134907;27;20208;-61
2023/09/21 10:36:46;;;;;;;23.25;21.95;;;;;;;-141.02;65.95;43519.44;5119012;27;20249;-61
2023/09/21 10:39:33;;;;;;;23.88;22.48;;;;;;;-141.02;65.53;43717.22;5134905;27;20249;-60
2023/09/21 10:42:33;;;;;;;22.35;20.95;;;;;;;-141.02;64.13;42619.00;5135233;27;20192;-60
2023/09/21 10:45:03;;;;;;;22.77;21.38;;;;;;;-141.02;65.67;41880.03;5135067;27;20188;-60
2023/09/21 10:47:42;;;;;;;22.15;20.75;;;;;;;-141.02;66.27;42085.41;5135057;27;20220;-61
2023/09/21 10:50:11;;;;;;;22.15;20.75;;;;;;;-141.02;65.90;41991.34;5135079;27;20184;-60
2023/09/21 10:52:41;;;;;;;22.35;21.05;;;;;;;-141.02;64.52;42571.03;5134615;27;20654;-61
2023/09/21 10:55:12;;;;;;;22.52;21.13;;;;;;;-141.02;64.01;42928.09;5134521;27;20192;-60
2023/09/21 10:57:39;;;;;;;22.80;21.38;;;;;;;-141.02;62.81;43329.34;5134841;27;20204;-61
2023/09/21 11:00:08;;;;;;;21.90;20.50;;;;;;;-141.02;63.96;43838.19;5134426;27;20208;-60
2023/09/21 11:02:38;;;;;;;21.67;20.27;;;;;;;-141.02;59.81;43469.50;5134460;27;20707;-61
2023/09/21 11:05:08;;;;;;;21.30;20.00;;;;;;;-141.02;60.97;43137.34;5134864;27;20207;-62
2023/09/21 11:07:36;;;;;;;21.20;19.80;;;;;;;-141.02;61.30;43849.72;5134573;27;20227;-61
2023/09/21 11:10:06;;;;;;;21.77;20.38;;;;;;;-141.02;60.74;43458.00;5134389;27;20577;-61
2023/09/21 11:12:37;;;;;;;21.30;19.90;;;;;;;-141.02;61.90;43607.75;5134606;27;20236;-61